createdAt,value
2018-02-01T00:00:58.854Z,17.6
2018-02-01T00:10:58.843Z,25.3
2018-02-01T00:20:58.714Z,26.3
2018-02-01T00:30:58.459Z,38.2
2018-02-01T00:40:58.160Z,47.9
2018-02-01T00:50:58.905Z,42.7
2018-02-01T01:00:58.604Z,32.3
2018-02-01T01:10:58.336Z,34.9
2018-02-01T01:20:58.202Z,30.6
2018-02-01T01:30:58.016Z,27.5
2018-02-01T01:40:58.744Z,34.1
2018-02-01T01:50:58.513Z,24.2
2018-02-01T02:00:58.200Z,23.2
2018-02-01T02:10:58.986Z,18.8
2018-02-01T02:20:58.841Z,14.4
2018-02-01T02:30:58.599Z,17.1
2018-02-01T02:40:58.381Z,14.2
2018-02-01T02:50:58.127Z,14.7
2018-02-01T03:00:58.813Z,13.8
2018-02-01T03:10:58.570Z,11.3
2018-02-01T03:20:58.420Z,10.1
2018-02-01T03:30:58.167Z,11.6
2018-02-01T03:40:58.933Z,13.7
2018-02-01T03:50:58.704Z,11.9
2018-02-01T04:00:58.377Z,11.1
2018-02-01T04:10:58.368Z,10.2
2018-02-01T04:20:58.279Z,9.3
2018-02-01T04:30:58.096Z,9.1
2018-02-01T04:40:58.855Z,9.8
2018-02-01T04:50:58.604Z,9.0
2018-02-01T05:00:58.349Z,9.6
2018-02-01T05:10:58.029Z,9.4
2018-02-01T05:20:58.917Z,10.4
2018-02-01T05:30:58.378Z,9.6
2018-02-01T05:40:58.236Z,10.9
2018-02-01T05:50:59.050Z,10.1
2018-02-01T06:00:58.733Z,10.2
2018-02-01T06:10:58.469Z,9.9
2018-02-01T06:20:58.437Z,10.8
2018-02-01T06:30:58.160Z,12.5
2018-02-01T06:40:58.933Z,15.1
2018-02-01T06:50:58.679Z,15.0
2018-02-01T07:00:58.368Z,14.3
2018-02-01T07:10:58.151Z,14.5
2018-02-01T07:20:58.856Z,16.0
2018-02-01T07:30:58.598Z,15.2
2018-02-01T07:40:58.329Z,16.1
2018-02-01T07:50:58.079Z,13.9
2018-02-01T08:00:58.809Z,15.4
2018-02-01T08:10:58.552Z,15.2
2018-02-01T08:20:58.481Z,14.8
2018-02-01T08:30:58.244Z,14.6
2018-02-01T08:40:58.982Z,13.9
2018-02-01T08:50:58.873Z,12.9
2018-02-01T09:00:58.665Z,12.3
2018-02-01T09:10:58.412Z,12.1
2018-02-01T09:20:58.288Z,10.5
2018-02-01T09:30:59.035Z,10.0
2018-02-01T09:40:58.769Z,8.8
2018-02-01T09:50:58.569Z,8.9
2018-02-01T10:00:58.352Z,8.8
2018-02-01T10:10:58.056Z,9.0
2018-02-01T10:20:58.854Z,8.7
2018-02-01T10:30:58.625Z,9.4
2018-02-01T10:40:58.373Z,9.9
2018-02-01T10:50:58.163Z,9.2
2018-02-01T11:00:58.918Z,8.2
2018-02-01T11:10:58.714Z,10.8
2018-02-01T11:20:58.609Z,9.9
2018-02-01T11:30:58.372Z,10.1
2018-02-01T11:40:58.081Z,10.4
2018-02-01T11:50:58.824Z,10.3
2018-02-01T12:00:58.620Z,13.2
2018-02-01T12:10:58.307Z,18.3
2018-02-01T12:20:58.154Z,15.3
2018-02-01T12:30:58.816Z,17.5
2018-02-01T12:40:58.570Z,21.0
2018-02-01T12:50:58.238Z,21.4
2018-02-01T13:00:58.992Z,18.5
2018-02-01T13:10:58.764Z,19.4
2018-02-01T13:20:58.555Z,19.1
2018-02-01T13:30:58.303Z,19.7
2018-02-01T13:40:59.058Z,21.4
2018-02-01T13:50:58.809Z,25.7
2018-02-01T14:00:58.617Z,27.1
2018-02-01T14:10:58.359Z,26.7
2018-02-01T14:20:58.254Z,31.5
2018-02-01T14:30:59.015Z,21.2
2018-02-01T14:40:58.840Z,22.0
2018-02-01T14:50:58.608Z,20.7
2018-02-01T15:00:58.371Z,19.5
2018-02-01T15:10:58.138Z,22.2
2018-02-01T15:20:58.917Z,21.7
2018-02-01T15:30:58.745Z,21.9
2018-02-01T15:40:58.510Z,22.5
2018-02-01T15:50:58.237Z,23.0
2018-02-01T16:00:59.032Z,24.8
2018-02-01T16:10:58.794Z,40.7
2018-02-01T16:20:58.934Z,38.1
2018-02-01T16:30:58.625Z,34.6
2018-02-01T16:40:58.310Z,35.7
2018-02-01T16:50:59.112Z,44.9
2018-02-01T17:00:58.853Z,56.6
2018-02-01T17:10:58.666Z,81.5
2018-02-01T17:20:58.579Z,66.8
2018-02-01T17:30:58.375Z,63.0
2018-02-01T17:40:59.174Z,58.3
2018-02-01T17:50:59.042Z,58.4
2018-02-01T18:00:58.839Z,55.6
2018-02-01T18:10:58.572Z,61.5
2018-02-01T18:20:58.506Z,59.3
2018-02-01T18:30:58.290Z,56.8
2018-02-01T18:40:59.104Z,53.7
2018-02-01T18:50:58.874Z,63.7
2018-02-01T19:00:58.620Z,57.8
2018-02-01T19:10:58.522Z,66.2
2018-02-01T19:20:58.421Z,71.3
2018-02-01T19:30:58.306Z,69.8
2018-02-01T19:40:59.126Z,70.2
2018-02-01T19:50:58.865Z,83.6
2018-02-01T20:00:58.557Z,70.2
2018-02-01T20:10:58.361Z,78.2
2018-02-01T20:20:58.190Z,76.9
2018-02-01T20:30:58.936Z,75.8
2018-02-01T20:40:58.758Z,64.4
2018-02-01T20:50:58.565Z,58.0
2018-02-01T21:00:58.357Z,49.8
2018-02-01T21:10:59.156Z,61.6
2018-02-01T21:20:59.062Z,48.1
2018-02-01T21:30:58.868Z,46.9
2018-02-01T21:40:58.602Z,47.9
2018-02-01T21:50:58.390Z,50.0
2018-02-01T22:00:59.162Z,42.6
2018-02-01T22:10:58.933Z,37.8
2018-02-01T22:20:58.851Z,34.8
2018-02-01T22:30:58.614Z,33.0
2018-02-01T22:40:58.373Z,33.8
2018-02-01T22:50:59.126Z,35.7
2018-02-01T23:00:58.866Z,42.2
2018-02-01T23:10:58.612Z,48.6
2018-02-01T23:20:58.527Z,60.9
2018-02-01T23:30:58.334Z,57.7
2018-02-01T23:40:59.129Z,24.9
2018-02-01T23:50:58.873Z,20.1
